sensor_id;sensor_type;location;lat;lon;timestamp;P1;durP1;ratioP1;P2;durP2;ratioP2
69034;SDS011;56091;55.756;37.412;2022-11-15T00:04:51;3.27;;;1.00;;
69034;SDS011;56091;55.756;37.412;2022-11-15T00:10:10;4.15;;;0.82;;
69034;SDS011;56091;55.756;37.412;2022-11-15T00:15:34;4.37;;;1.10;;
69034;SDS011;56091;55.756;37.412;2022-11-15T00:21:02;4.63;;;1.10;;
69034;SDS011;56091;55.756;37.412;2022-11-15T00:26:26;4.83;;;0.97;;
69034;SDS011;56091;55.756;37.412;2022-11-15T00:31:45;2.60;;;0.98;;
69034;SDS011;56091;55.756;37.412;2022-11-15T00:37:05;3.83;;;1.10;;
69034;SDS011;56091;55.756;37.412;2022-11-15T00:42:25;5.30;;;1.20;;
69034;SDS011;56091;55.756;37.412;2022-11-15T00:47:45;5.37;;;1.20;;
69034;SDS011;56091;55.756;37.412;2022-11-15T00:53:05;2.85;;;1.10;;
69034;SDS011;56091;55.756;37.412;2022-11-15T00:58:24;6.07;;;1.20;;
69034;SDS011;56091;55.756;37.412;2022-11-15T01:03:43;7.50;;;1.23;;
69034;SDS011;56091;55.756;37.412;2022-11-15T01:09:03;3.53;;;1.20;;
69034;SDS011;56091;55.756;37.412;2022-11-15T01:14:22;4.60;;;1.00;;
69034;SDS011;56091;55.756;37.412;2022-11-15T01:19:44;3.70;;;1.20;;
69034;SDS011;56091;55.756;37.412;2022-11-15T01:25:04;4.78;;;1.27;;
69034;SDS011;56091;55.756;37.412;2022-11-15T01:30:23;5.37;;;1.07;;
69034;SDS011;56091;55.756;37.412;2022-11-15T01:35:42;4.32;;;1.10;;
69034;SDS011;56091;55.756;37.412;2022-11-15T01:41:03;11.23;;;1.47;;
69034;SDS011;56091;55.756;37.412;2022-11-15T01:46:28;8.35;;;1.38;;
69034;SDS011;56091;55.756;37.412;2022-11-15T01:51:57;5.10;;;1.00;;
69034;SDS011;56091;55.756;37.412;2022-11-15T01:57:19;5.07;;;1.13;;
69034;SDS011;56091;55.756;37.412;2022-11-15T02:02:39;5.37;;;1.20;;
69034;SDS011;56091;55.756;37.412;2022-11-15T02:07:59;8.80;;;1.23;;
69034;SDS011;56091;55.756;37.412;2022-11-15T02:13:19;4.30;;;1.10;;
69034;SDS011;56091;55.756;37.412;2022-11-15T02:18:40;4.65;;;1.23;;
69034;SDS011;56091;55.756;37.412;2022-11-15T02:29:44;3.25;;;1.10;;
69034;SDS011;56091;55.756;37.412;2022-11-15T02:35:50;4.70;;;1.40;;
69034;SDS011;56091;55.756;37.412;2022-11-15T02:41:30;7.07;;;1.50;;
69034;SDS011;56091;55.756;37.412;2022-11-15T02:52:32;4.47;;;1.30;;
69034;SDS011;56091;55.756;37.412;2022-11-15T02:57:52;5.97;;;1.47;;
69034;SDS011;56091;55.756;37.412;2022-11-15T03:14:50;5.65;;;1.52;;
69034;SDS011;56091;55.756;37.412;2022-11-15T03:20:12;6.67;;;1.50;;
69034;SDS011;56091;55.756;37.412;2022-11-15T03:25:36;4.35;;;1.27;;
69034;SDS011;56091;55.756;37.412;2022-11-15T03:31:01;5.47;;;1.50;;
69034;SDS011;56091;55.756;37.412;2022-11-15T03:36:42;5.85;;;1.65;;
69034;SDS011;56091;55.756;37.412;2022-11-15T03:53:23;7.27;;;1.40;;
69034;SDS011;56091;55.756;37.412;2022-11-15T03:58:42;5.57;;;1.33;;
69034;SDS011;56091;55.756;37.412;2022-11-15T04:04:01;5.50;;;1.27;;
69034;SDS011;56091;55.756;37.412;2022-11-15T04:09:21;6.97;;;1.52;;
69034;SDS011;56091;55.756;37.412;2022-11-15T04:14:40;3.13;;;1.10;;
69034;SDS011;56091;55.756;37.412;2022-11-15T04:26:00;5.67;;;1.17;;
69034;SDS011;56091;55.756;37.412;2022-11-15T04:31:23;6.32;;;1.58;;
69034;SDS011;56091;55.756;37.412;2022-11-15T04:36:42;6.23;;;1.40;;
69034;SDS011;56091;55.756;37.412;2022-11-15T04:42:20;3.78;;;1.10;;
69034;SDS011;56091;55.756;37.412;2022-11-15T04:47:40;8.97;;;1.20;;
69034;SDS011;56091;55.756;37.412;2022-11-15T04:53:01;10.00;;;1.38;;
69034;SDS011;56091;55.756;37.412;2022-11-15T04:58:21;6.03;;;1.40;;
69034;SDS011;56091;55.756;37.412;2022-11-15T05:03:41;8.35;;;1.52;;
69034;SDS011;56091;55.756;37.412;2022-11-15T05:09:20;5.33;;;1.17;;
69034;SDS011;56091;55.756;37.412;2022-11-15T05:14:39;4.88;;;1.30;;
69034;SDS011;56091;55.756;37.412;2022-11-15T05:19:59;5.97;;;1.20;;
69034;SDS011;56091;55.756;37.412;2022-11-15T05:25:19;8.52;;;1.45;;
69034;SDS011;56091;55.756;37.412;2022-11-15T05:30:38;4.53;;;1.10;;
69034;SDS011;56091;55.756;37.412;2022-11-15T05:36:00;8.43;;;2.05;;
69034;SDS011;56091;55.756;37.412;2022-11-15T05:41:33;4.67;;;1.20;;
69034;SDS011;56091;55.756;37.412;2022-11-15T05:46:54;13.65;;;1.83;;
69034;SDS011;56091;55.756;37.412;2022-11-15T05:52:16;6.10;;;1.40;;
69034;SDS011;56091;55.756;37.412;2022-11-15T05:57:39;5.20;;;1.40;;
69034;SDS011;56091;55.756;37.412;2022-11-15T06:02:58;4.80;;;1.43;;
69034;SDS011;56091;55.756;37.412;2022-11-15T06:08:18;7.05;;;1.92;;
69034;SDS011;56091;55.756;37.412;2022-11-15T06:13:37;3.33;;;1.27;;
69034;SDS011;56091;55.756;37.412;2022-11-15T06:18:57;6.53;;;1.00;;
69034;SDS011;56091;55.756;37.412;2022-11-15T06:24:16;5.07;;;1.20;;
69034;SDS011;56091;55.756;37.412;2022-11-15T06:29:35;6.55;;;1.27;;
69034;SDS011;56091;55.756;37.412;2022-11-15T06:34:54;6.97;;;1.20;;
69034;SDS011;56091;55.756;37.412;2022-11-15T06:40:14;5.50;;;1.23;;
69034;SDS011;56091;55.756;37.412;2022-11-15T06:45:34;8.37;;;1.57;;
69034;SDS011;56091;55.756;37.412;2022-11-15T06:50:53;4.53;;;1.20;;
69034;SDS011;56091;55.756;37.412;2022-11-15T06:56:14;7.13;;;1.37;;
69034;SDS011;56091;55.756;37.412;2022-11-15T07:01:33;7.32;;;1.35;;
69034;SDS011;56091;55.756;37.412;2022-11-15T07:06:53;4.60;;;1.57;;
69034;SDS011;56091;55.756;37.412;2022-11-15T07:12:12;7.22;;;1.55;;
69034;SDS011;56091;55.756;37.412;2022-11-15T07:17:32;6.77;;;1.50;;
69034;SDS011;56091;55.756;37.412;2022-11-15T07:23:00;7.90;;;1.40;;
69034;SDS011;56091;55.756;37.412;2022-11-15T07:28:23;6.50;;;1.70;;
69034;SDS011;56091;55.756;37.412;2022-11-15T07:33:43;6.72;;;1.25;;
69034;SDS011;56091;55.756;37.412;2022-11-15T07:39:02;5.50;;;1.70;;
69034;SDS011;56091;55.756;37.412;2022-11-15T07:44:22;5.93;;;1.70;;
69034;SDS011;56091;55.756;37.412;2022-11-15T07:49:41;6.77;;;1.60;;
69034;SDS011;56091;55.756;37.412;2022-11-15T07:55:01;8.05;;;1.67;;
69034;SDS011;56091;55.756;37.412;2022-11-15T08:00:20;7.63;;;2.13;;
69034;SDS011;56091;55.756;37.412;2022-11-15T08:05:40;9.95;;;1.73;;
69034;SDS011;56091;55.756;37.412;2022-11-15T08:11:00;6.83;;;1.60;;
69034;SDS011;56091;55.756;37.412;2022-11-15T08:16:19;7.13;;;1.50;;
69034;SDS011;56091;55.756;37.412;2022-11-15T08:21:39;7.60;;;1.57;;
69034;SDS011;56091;55.756;37.412;2022-11-15T08:26:58;8.77;;;1.88;;
69034;SDS011;56091;55.756;37.412;2022-11-15T08:32:17;6.30;;;1.97;;
69034;SDS011;56091;55.756;37.412;2022-11-15T08:37:37;6.30;;;2.13;;
69034;SDS011;56091;55.756;37.412;2022-11-15T08:42:56;8.47;;;2.27;;
69034;SDS011;56091;55.756;37.412;2022-11-15T08:48:17;7.85;;;1.90;;
69034;SDS011;56091;55.756;37.412;2022-11-15T08:53:36;11.07;;;2.23;;
69034;SDS011;56091;55.756;37.412;2022-11-15T08:58:56;9.05;;;2.40;;
69034;SDS011;56091;55.756;37.412;2022-11-15T09:04:17;8.93;;;2.37;;
69034;SDS011;56091;55.756;37.412;2022-11-15T09:09:36;10.60;;;2.38;;
69034;SDS011;56091;55.756;37.412;2022-11-15T09:14:56;8.17;;;2.40;;
69034;SDS011;56091;55.756;37.412;2022-11-15T09:20:16;9.23;;;2.70;;
69034;SDS011;56091;55.756;37.412;2022-11-15T09:25:38;13.13;;;2.30;;
69034;SDS011;56091;55.756;37.412;2022-11-15T09:30:57;12.77;;;3.85;;
69034;SDS011;56091;55.756;37.412;2022-11-15T09:36:21;12.33;;;2.80;;
69034;SDS011;56091;55.756;37.412;2022-11-15T09:53:25;12.65;;;2.10;;
69034;SDS011;56091;55.756;37.412;2022-11-15T09:58:34;12.13;;;2.40;;
69034;SDS011;56091;55.756;37.412;2022-11-15T10:03:40;8.52;;;2.20;;
69034;SDS011;56091;55.756;37.412;2022-11-15T10:08:54;9.53;;;2.23;;
69034;SDS011;56091;55.756;37.412;2022-11-15T10:14:13;11.00;;;2.88;;
69034;SDS011;56091;55.756;37.412;2022-11-15T10:24:44;18.65;;;2.40;;
69034;SDS011;56091;55.756;37.412;2022-11-15T10:29:49;9.77;;;2.50;;
69034;SDS011;56091;55.756;37.412;2022-11-15T10:34:53;8.95;;;2.00;;
69034;SDS011;56091;55.756;37.412;2022-11-15T10:40:03;8.40;;;2.00;;
69034;SDS011;56091;55.756;37.412;2022-11-15T10:45:22;9.82;;;2.20;;
69034;SDS011;56091;55.756;37.412;2022-11-15T10:50:30;11.00;;;2.60;;
69034;SDS011;56091;55.756;37.412;2022-11-15T10:55:34;9.88;;;2.35;;
69034;SDS011;56091;55.756;37.412;2022-11-15T11:00:36;6.93;;;2.03;;
69034;SDS011;56091;55.756;37.412;2022-11-15T11:05:40;9.20;;;2.30;;
69034;SDS011;56091;55.756;37.412;2022-11-15T11:10:51;7.37;;;2.30;;
69034;SDS011;56091;55.756;37.412;2022-11-15T11:21:41;7.90;;;1.90;;
69034;SDS011;56091;55.756;37.412;2022-11-15T11:37:35;8.15;;;2.47;;
69034;SDS011;56091;55.756;37.412;2022-11-15T11:42:47;10.63;;;2.00;;
69034;SDS011;56091;55.756;37.412;2022-11-15T11:58:43;13.07;;;2.08;;
69034;SDS011;56091;55.756;37.412;2022-11-15T12:19:39;8.18;;;2.40;;
69034;SDS011;56091;55.756;37.412;2022-11-15T12:24:41;5.53;;;1.87;;
69034;SDS011;56091;55.756;37.412;2022-11-15T12:30:07;9.77;;;2.40;;
69034;SDS011;56091;55.756;37.412;2022-11-15T12:35:56;10.03;;;2.20;;
69034;SDS011;56091;55.756;37.412;2022-11-15T12:51:21;16.20;;;2.60;;
69034;SDS011;56091;55.756;37.412;2022-11-15T12:56:40;8.77;;;2.40;;
69034;SDS011;56091;55.756;37.412;2022-11-15T13:11:46;16.08;;;2.38;;
69034;SDS011;56091;55.756;37.412;2022-11-15T13:16:55;10.03;;;2.80;;
69034;SDS011;56091;55.756;37.412;2022-11-15T13:21:59;13.32;;;2.97;;
69034;SDS011;56091;55.756;37.412;2022-11-15T13:27:19;12.07;;;3.13;;
69034;SDS011;56091;55.756;37.412;2022-11-15T13:32:20;10.93;;;2.70;;
69034;SDS011;56091;55.756;37.412;2022-11-15T13:42:22;9.32;;;3.00;;
69034;SDS011;56091;55.756;37.412;2022-11-15T13:47:29;12.53;;;3.40;;
69034;SDS011;56091;55.756;37.412;2022-11-15T13:52:32;11.95;;;3.47;;
69034;SDS011;56091;55.756;37.412;2022-11-15T14:02:53;10.98;;;3.75;;
69034;SDS011;56091;55.756;37.412;2022-11-15T14:08:00;13.50;;;4.53;;
69034;SDS011;56091;55.756;37.412;2022-11-15T14:13:10;11.70;;;3.47;;
69034;SDS011;56091;55.756;37.412;2022-11-15T14:23:47;11.77;;;3.08;;
69034;SDS011;56091;55.756;37.412;2022-11-15T14:28:49;10.70;;;3.50;;
69034;SDS011;56091;55.756;37.412;2022-11-15T14:33:50;14.30;;;3.90;;
69034;SDS011;56091;55.756;37.412;2022-11-15T14:38:50;11.37;;;3.47;;
69034;SDS011;56091;55.756;37.412;2022-11-15T14:43:52;11.55;;;3.40;;
69034;SDS011;56091;55.756;37.412;2022-11-15T14:48:58;11.70;;;3.73;;
69034;SDS011;56091;55.756;37.412;2022-11-15T14:53:59;12.93;;;3.85;;
69034;SDS011;56091;55.756;37.412;2022-11-15T14:59:00;11.27;;;3.43;;
69034;SDS011;56091;55.756;37.412;2022-11-15T15:04:01;8.82;;;3.03;;
69034;SDS011;56091;55.756;37.412;2022-11-15T15:09:02;10.80;;;3.20;;
69034;SDS011;56091;55.756;37.412;2022-11-15T15:14:05;9.40;;;3.00;;
69034;SDS011;56091;55.756;37.412;2022-11-15T15:19:11;7.55;;;3.00;;
69034;SDS011;56091;55.756;37.412;2022-11-15T15:24:15;12.47;;;3.70;;
69034;SDS011;56091;55.756;37.412;2022-11-15T15:29:19;13.70;;;3.90;;
69034;SDS011;56091;55.756;37.412;2022-11-15T15:34:19;11.93;;;4.10;;
69034;SDS011;56091;55.756;37.412;2022-11-15T15:39:20;14.77;;;4.00;;
69034;SDS011;56091;55.756;37.412;2022-11-15T15:44:21;10.47;;;4.30;;
69034;SDS011;56091;55.756;37.412;2022-11-15T15:49:22;17.02;;;4.97;;
69034;SDS011;56091;55.756;37.412;2022-11-15T15:54:23;11.95;;;4.82;;
69034;SDS011;56091;55.756;37.412;2022-11-15T15:59:24;14.67;;;4.43;;
69034;SDS011;56091;55.756;37.412;2022-11-15T16:04:27;15.55;;;4.75;;
69034;SDS011;56091;55.756;37.412;2022-11-15T16:09:28;13.20;;;4.50;;
69034;SDS011;56091;55.756;37.412;2022-11-15T16:14:49;11.10;;;4.38;;
69034;SDS011;56091;55.756;37.412;2022-11-15T16:19:50;13.47;;;4.60;;
69034;SDS011;56091;55.756;37.412;2022-11-15T16:24:51;16.60;;;4.78;;
69034;SDS011;56091;55.756;37.412;2022-11-15T16:29:51;15.17;;;5.63;;
69034;SDS011;56091;55.756;37.412;2022-11-15T16:34:52;17.48;;;6.15;;
69034;SDS011;56091;55.756;37.412;2022-11-15T16:39:53;16.00;;;6.13;;
69034;SDS011;56091;55.756;37.412;2022-11-15T16:44:53;15.70;;;6.27;;
69034;SDS011;56091;55.756;37.412;2022-11-15T16:49:54;19.07;;;6.90;;
69034;SDS011;56091;55.756;37.412;2022-11-15T16:54:55;20.70;;;6.60;;
69034;SDS011;56091;55.756;37.412;2022-11-15T16:59:56;15.10;;;6.90;;
69034;SDS011;56091;55.756;37.412;2022-11-15T17:04:59;18.83;;;5.97;;
69034;SDS011;56091;55.756;37.412;2022-11-15T17:10:00;17.10;;;6.03;;
69034;SDS011;56091;55.756;37.412;2022-11-15T17:15:01;19.57;;;6.47;;
69034;SDS011;56091;55.756;37.412;2022-11-15T17:20:14;14.85;;;6.25;;
69034;SDS011;56091;55.756;37.412;2022-11-15T17:25:21;17.53;;;6.47;;
69034;SDS011;56091;55.756;37.412;2022-11-15T17:30:22;15.73;;;6.25;;
69034;SDS011;56091;55.756;37.412;2022-11-15T17:35:23;14.00;;;6.23;;
69034;SDS011;56091;55.756;37.412;2022-11-15T17:40:23;13.10;;;5.63;;
69034;SDS011;56091;55.756;37.412;2022-11-15T17:45:24;18.03;;;6.40;;
69034;SDS011;56091;55.756;37.412;2022-11-15T17:50:28;13.87;;;5.20;;
69034;SDS011;56091;55.756;37.412;2022-11-15T17:55:29;13.50;;;5.53;;
69034;SDS011;56091;55.756;37.412;2022-11-15T18:00:31;13.70;;;5.73;;
69034;SDS011;56091;55.756;37.412;2022-11-15T18:05:32;18.83;;;5.55;;
69034;SDS011;56091;55.756;37.412;2022-11-15T18:10:33;15.07;;;5.50;;
69034;SDS011;56091;55.756;37.412;2022-11-15T18:15:34;15.77;;;5.90;;
69034;SDS011;56091;55.756;37.412;2022-11-15T18:20:34;13.90;;;5.60;;
69034;SDS011;56091;55.756;37.412;2022-11-15T18:25:35;13.70;;;5.43;;
69034;SDS011;56091;55.756;37.412;2022-11-15T18:30:37;12.50;;;5.13;;
69034;SDS011;56091;55.756;37.412;2022-11-15T18:35:38;14.38;;;5.55;;
69034;SDS011;56091;55.756;37.412;2022-11-15T18:40:38;13.73;;;5.40;;
69034;SDS011;56091;55.756;37.412;2022-11-15T18:45:39;13.60;;;5.70;;
69034;SDS011;56091;55.756;37.412;2022-11-15T18:50:40;14.02;;;5.97;;
69034;SDS011;56091;55.756;37.412;2022-11-15T18:55:41;13.97;;;6.07;;
69034;SDS011;56091;55.756;37.412;2022-11-15T19:00:42;20.73;;;6.85;;
69034;SDS011;56091;55.756;37.412;2022-11-15T19:05:43;18.50;;;6.37;;
69034;SDS011;56091;55.756;37.412;2022-11-15T19:10:46;17.33;;;6.80;;
69034;SDS011;56091;55.756;37.412;2022-11-15T19:15:47;19.58;;;6.60;;
69034;SDS011;56091;55.756;37.412;2022-11-15T19:20:48;15.03;;;6.43;;
69034;SDS011;56091;55.756;37.412;2022-11-15T19:25:56;14.63;;;6.45;;
69034;SDS011;56091;55.756;37.412;2022-11-15T19:31:11;14.27;;;6.17;;
69034;SDS011;56091;55.756;37.412;2022-11-15T19:36:14;15.40;;;6.63;;
69034;SDS011;56091;55.756;37.412;2022-11-15T19:41:18;17.27;;;7.40;;
69034;SDS011;56091;55.756;37.412;2022-11-15T19:46:21;15.68;;;6.60;;
69034;SDS011;56091;55.756;37.412;2022-11-15T19:51:24;18.47;;;5.93;;
69034;SDS011;56091;55.756;37.412;2022-11-15T19:56:27;15.10;;;6.22;;
69034;SDS011;56091;55.756;37.412;2022-11-15T20:01:29;14.53;;;5.67;;
69034;SDS011;56091;55.756;37.412;2022-11-15T20:06:32;15.15;;;6.20;;
69034;SDS011;56091;55.756;37.412;2022-11-15T20:11:34;16.10;;;5.90;;
69034;SDS011;56091;55.756;37.412;2022-11-15T20:16:37;14.50;;;6.03;;
69034;SDS011;56091;55.756;37.412;2022-11-15T20:21:38;17.73;;;6.17;;
69034;SDS011;56091;55.756;37.412;2022-11-15T20:26:39;16.38;;;6.10;;
69034;SDS011;56091;55.756;37.412;2022-11-15T20:31:40;14.07;;;6.50;;
69034;SDS011;56091;55.756;37.412;2022-11-15T20:36:41;15.30;;;6.28;;
69034;SDS011;56091;55.756;37.412;2022-11-15T20:41:42;15.03;;;6.17;;
69034;SDS011;56091;55.756;37.412;2022-11-15T20:46:43;15.53;;;5.90;;
69034;SDS011;56091;55.756;37.412;2022-11-15T20:51:43;15.15;;;6.18;;
69034;SDS011;56091;55.756;37.412;2022-11-15T20:56:44;14.90;;;6.57;;
69034;SDS011;56091;55.756;37.412;2022-11-15T21:01:45;16.40;;;6.45;;
69034;SDS011;56091;55.756;37.412;2022-11-15T21:06:47;17.57;;;7.60;;
69034;SDS011;56091;55.756;37.412;2022-11-15T21:11:50;18.23;;;8.13;;
69034;SDS011;56091;55.756;37.412;2022-11-15T21:17:11;23.73;;;9.90;;
69034;SDS011;56091;55.756;37.412;2022-11-15T21:22:13;23.75;;;9.77;;
69034;SDS011;56091;55.756;37.412;2022-11-15T21:27:14;29.43;;;12.07;;
69034;SDS011;56091;55.756;37.412;2022-11-15T21:32:16;30.67;;;11.73;;
69034;SDS011;56091;55.756;37.412;2022-11-15T21:37:19;37.23;;;12.57;;
69034;SDS011;56091;55.756;37.412;2022-11-15T21:42:20;30.20;;;11.23;;
69034;SDS011;56091;55.756;37.412;2022-11-15T21:47:22;28.90;;;11.90;;
69034;SDS011;56091;55.756;37.412;2022-11-15T21:52:23;35.63;;;13.43;;
69034;SDS011;56091;55.756;37.412;2022-11-15T21:57:25;33.47;;;12.82;;
69034;SDS011;56091;55.756;37.412;2022-11-15T22:02:29;25.88;;;10.88;;
69034;SDS011;56091;55.756;37.412;2022-11-15T22:07:30;26.65;;;10.27;;
69034;SDS011;56091;55.756;37.412;2022-11-15T22:12:31;24.07;;;9.37;;
69034;SDS011;56091;55.756;37.412;2022-11-15T22:17:31;22.02;;;8.80;;
69034;SDS011;56091;55.756;37.412;2022-11-15T22:22:51;20.07;;;7.80;;
69034;SDS011;56091;55.756;37.412;2022-11-15T22:27:52;18.05;;;8.60;;
69034;SDS011;56091;55.756;37.412;2022-11-15T22:32:54;21.00;;;9.73;;
69034;SDS011;56091;55.756;37.412;2022-11-15T22:37:55;23.35;;;9.55;;
69034;SDS011;56091;55.756;37.412;2022-11-15T22:42:56;24.03;;;9.97;;
69034;SDS011;56091;55.756;37.412;2022-11-15T22:47:56;20.88;;;8.43;;
69034;SDS011;56091;55.756;37.412;2022-11-15T22:52:57;20.40;;;9.38;;
69034;SDS011;56091;55.756;37.412;2022-11-15T22:57:58;23.63;;;10.50;;
69034;SDS011;56091;55.756;37.412;2022-11-15T23:02:59;22.50;;;9.90;;
69034;SDS011;56091;55.756;37.412;2022-11-15T23:08:00;21.73;;;9.03;;
69034;SDS011;56091;55.756;37.412;2022-11-15T23:13:05;21.25;;;9.43;;
69034;SDS011;56091;55.756;37.412;2022-11-15T23:18:16;17.27;;;9.00;;
69034;SDS011;56091;55.756;37.412;2022-11-15T23:23:17;19.13;;;8.90;;
69034;SDS011;56091;55.756;37.412;2022-11-15T23:28:18;20.40;;;9.37;;
69034;SDS011;56091;55.756;37.412;2022-11-15T23:33:20;21.95;;;9.18;;
69034;SDS011;56091;55.756;37.412;2022-11-15T23:38:40;21.33;;;9.47;;
69034;SDS011;56091;55.756;37.412;2022-11-15T23:43:42;27.05;;;10.07;;
69034;SDS011;56091;55.756;37.412;2022-11-15T23:48:43;21.63;;;9.27;;
69034;SDS011;56091;55.756;37.412;2022-11-15T23:53:44;23.55;;;9.35;;
69034;SDS011;56091;55.756;37.412;2022-11-15T23:58:45;22.93;;;9.30;;
